D/T METAR WX W/DIR W/SPE G/SPE TEMP DEWP
5/06/20 05:50 EGUW 050450Z AUTO 28011G21KT 9999 FEW050/// BKN120/// 10/08 Q0993 W (280°) 12.7mph 24.2mph 10°C 8°C
5/06/20 04:50 EGUW 050350Z AUTO 27009KT 9999 SCT006/// BKN048/// 10/09 Q0994 RERA W (270°) 10.4mph 10°C 9°C
5/06/20 03:50 EGUW 050250Z AUTO 26007KT 9999 RA FEW025/// BKN045/// 10/09 Q0994 RA W (260°) 8.1mph 10°C 9°C
5/06/20 02:50 EGUW 050150Z AUTO 25009KT 9999 -RADZ OVC060/// 10/09 Q0996 -RA -DZ WSW (250°) 10.4mph 10°C 9°C
5/06/20 01:50 EGUW 050050Z AUTO 25009KT 9999 -RADZ BKN060/// 10/08 Q0996 -RA -DZ WSW (250°) 10.4mph 10°C 8°C
5/06/20 00:50 EGUW 042350Z 24006KT 9999 FEW020 BKN080 BKN160 10/08 Q0997 NOSIG RMK BLU BLU WSW (240°) 6.9mph 10°C 8°C
5/06/20 00:19 EGUW 042319Z 24007KT 9999 FEW021 SCT050 BKN100 10/08 Q0998 NOSIG RMK BLU BLU WSW (240°) 8.1mph 10°C 8°C
4/06/20 23:50 EGUW 042250Z 23007KT 9999 FEW025 BKN110 09/07 Q0998 NOSIG RMK BLU BLU SW (230°) 8.1mph 9°C 7°C
4/06/20 23:20 EGUW 042220Z 23006KT 9999 FEW040 BKN120 09/07 Q0998 TEMPO 7000 SHRA RMK BLU TEMPO WHT SW (230°) 6.9mph 9°C 7°C
4/06/20 22:50 EGUW 042150Z 23004KT 9999 SCT033 BKN120 09/07 Q0999 TEMPO 7000 SHRA RMK BLU TEMPO WHT SW (230°) 4.6mph 9°C 7°C
4/06/20 22:20 EGUW 042120Z 23005KT 9999 SCT040 BKN110 09/07 Q0999 TEMPO 7000 SHRA RMK BLU TEMPO WHT SW (230°) 5.8mph 9°C 7°C
4/06/20 21:50 EGUW 042050Z 24005KT CAVOK 09/07 Q1000 TEMPO 7000 SHRA RMK BLU TEMPO WHT WSW (240°) 5.8mph 9°C 7°C
4/06/20 21:20 EGUW 042020Z 24005KT CAVOK 09/06 Q0999 TEMPO 7000 SHRA RMK BLU TEMPO WHT WSW (240°) 5.8mph 9°C 6°C
4/06/20 20:50 EGUW 041950Z 25005KT CAVOK 10/07 Q1000 TEMPO 7000 SHRA RMK BLU TEMPO WHT WSW (250°) 5.8mph 10°C 7°C
4/06/20 20:29 EGUW 041929Z 27006KT 9999 FEW033 BKN060 10/07 Q1000 NOSIG RMK BLU BLU W (270°) 6.9mph 10°C 7°C
4/06/20 19:50 EGUW 041850Z 27008KT 9999 FEW023 BKN050 11/06 Q1000 NOSIG RMK BLU BLU W (270°) 9.2mph 11°C 6°C
4/06/20 19:20 EGUW 041820Z 29008KT 9999 -SHRA SCT033 BKN050 11/06 Q1000 NOSIG RMK BLU BLU -SHRA WNW (290°) 9.2mph 11°C 6°C
4/06/20 18:50 EGUW 041750Z 29008KT 9999 FEW033 SCT050 BKN080 12/06 Q1000 NOSIG RMK BLU BLU WNW (290°) 9.2mph 12°C 6°C
4/06/20 18:22 EGUW 041722Z 30008KT 9999 FEW033 BKN050 12/06 Q1000 NOSIG RMK BLU BLU WNW (300°) 9.2mph 12°C 6°C
4/06/20 17:50 EGUW 041650Z 30009KT 9999 -SHRA SCT033 BKN050 12/05 Q1000 NOSIG RMK BLU BLU -SHRA WNW (300°) 10.4mph 12°C 5°C
4/06/20 17:21 EGUW 041621Z 31011KT 9999 SCT033 BKN080 12/05 Q1000 NOSIG RMK BLU BLU NW (310°) 12.7mph 12°C 5°C
4/06/20 16:50 EGUW 041550Z 30010KT 9999 FEW033 OVC080 13/05 Q1000 NOSIG RMK BLU BLU WNW (300°) 11.5mph 13°C 5°C
4/06/20 16:22 EGUW 041522Z 32010KT 9999 SCT034 OVC048 12/05 Q1001 NOSIG RMK BLU BLU NW (320°) 11.5mph 12°C 5°C
4/06/20 15:50 EGUW 041450Z 31013KT 9999 SCT040 OVC048 12/05 Q1001 NOSIG RMK BLU BLU NW (310°) 15.0mph 12°C 5°C
4/06/20 15:20 EGUW 041420Z 32012KT 9999 SCT040 OVC048 13/05 Q1001 NOSIG RMK BLU BLU NW (320°) 13.8mph 13°C 5°C
4/06/20 14:50 EGUW 041350Z 32011KT 9999 SCT040 OVC048 13/04 Q1001 NOSIG RMK BLU BLU NW (320°) 12.7mph 13°C 4°C
4/06/20 14:20 EGUW 041320Z 33014KT 9999 SCT040 OVC050 14/04 Q1001 NOSIG RMK BLU BLU NNW (330°) 16.1mph 14°C 4°C
4/06/20 13:50 EGUW 041250Z 33012KT 9999 SCT038 BKN045 13/04 Q1001 NOSIG RMK BLU BLU NNW (330°) 13.8mph 13°C 4°C
4/06/20 13:19 EGUW 041219Z 32011KT 9999 SCT033 BKN048 BKN140 13/04 Q1001 NOSIG RMK BLU BLU NW (320°) 12.7mph 13°C 4°C
4/06/20 12:50 EGUW 041150Z 35011KT 9999 SCT030 BKN130 13/05 Q1001 NOSIG RMK BLU BLU N (350°) 12.7mph 13°C 5°C
4/06/20 12:20 EGUW 041120Z 32012KT 9999 SCT028 BKN042 12/06 Q1002 NOSIG RMK BLU BLU NW (320°) 13.8mph 12°C 6°C
4/06/20 11:50 EGUW 041050Z 33012KT 9999 FEW025 SCT035 BKN050 12/06 Q1002 TEMPO SCT024 RMK BLU TEMPO WHT NNW (330°) 13.8mph 12°C 6°C
4/06/20 11:41 EGUW 041041Z 33013KT 9999 FEW025 BKN035 13/06 Q1002 TEMPO SCT024 RMK BLU TEMPO WHT NNW (330°) 15.0mph 13°C 6°C
4/06/20 11:10 EGUW 041010Z 34012KT 9999 SCT022 BKN035 12/06 Q1002 TEMPO SCT025 RMK WHT TEMPO BLU NNW (340°) 13.8mph 12°C 6°C
4/06/20 10:40 EGUW 040940Z 33012KT 9999 -SHRA SCT021 BKN041 11/06 Q1002 WHT BECMG NSW SCT025 RMK WHT BECMG BLU -SHRA NNW (330°) 13.8mph 11°C 6°C
4/06/20 09:50 EGUW 040850Z 35014KT 9999 FEW028 SCT035 BKN045 12/06 Q1002 TEMPO SCT024 RMK BLU TEMPO WHT N (350°) 16.1mph 12°C 6°C
4/06/20 09:19 EGUW 040819Z 35015KT 9999 SCT027 BKN050 12/06 Q1002 TEMPO SCT024 RMK BLU TEMPO WHT N (350°) 17.3mph 12°C 6°C
4/06/20 08:50 EGUW 040750Z 36015KT 9999 FEW018 BKN050 12/06 Q1002 TEMPO SCT020 RMK BLU TEMPO WHT N (360°) 17.3mph 12°C 6°C
4/06/20 08:20 EGUW 040720Z 35014KT 9999 FEW012 SCT020 BKN050 12/08 Q1003 BECMG SCT025 RMK WHT BECMG BLU N (350°) 16.1mph 12°C 8°C
4/06/20 07:50 EGUW 040650Z 36015KT 9999 -RA FEW010 SCT014 BKN050 11/08 Q1003 BECMG NSW BKN018 RMK GRN BEMG WHT -RA N (360°) 17.3mph 11°C 8°C
4/06/20 06:50 EGUW 040550Z 35012KT 9999 FEW008 BKN014 BKN019 11/09 Q1003 RMK GRN N (350°) 13.8mph 11°C 9°C
4/06/20 05:50 EGUW 040450Z AUTO 34010KT 9999 BKN010/// BKN060/// 11/09 Q1003 NNW (340°) 11.5mph 11°C 9°C
4/06/20 04:50 EGUW 040350Z AUTO 34009KT 9999 FEW011/// BKN060/// 10/09 Q1003 NNW (340°) 10.4mph 10°C 9°C
4/06/20 03:50 EGUW 040250Z AUTO 35011KT 9999 BKN008/// 11/09 Q1003 N (350°) 12.7mph 11°C 9°C
4/06/20 02:50 EGUW 040150Z AUTO 35011KT 9999 BKN004/// BKN012/// 10/10 Q1004 N (350°) 12.7mph 10°C 10°C
4/06/20 01:50 EGUW 040050Z AUTO 36012KT 9999 OVC005/// 11/10 Q1005 N (360°) 13.8mph 11°C 10°C
4/06/20 01:20 EGUW 040020Z 35014KT 7000 -DZ OVC006 11/10 Q1005 -DZ N (350°) 16.1mph 11°C 10°C
4/06/20 00:50 EGUW 032350Z 36011KT 9999 -DZ OVC007 11/10 Q1005 TEMPO BKN006 RMK GRN TEMPO YL01 -DZ N (360°) 12.7mph 11°C 10°C
4/06/20 00:22 EGUW 032322Z 36011KT 9999 OVC008 12/10 Q1005 NOSIG RMK GRN GRN N (360°) 12.7mph 12°C 10°C
3/06/20 23:50 EGUW 032250Z 36011KT 9999 -RA SCT008 BKN020 12/10 Q1006 NOSIG RMK GRN GRN -RA N (360°) 12.7mph 12°C 10°C
3/06/20 23:23 EGUW 032223Z 36012KT 9999 FEW010 BKN025 BKN080 12/10 Q1006 BECMG BKN010 RMK BLU BECMG GRN N (360°) 13.8mph 12°C 10°C
3/06/20 22:50 EGUW 032150Z 36013KT 9999 FEW012 SCT030 BKN080 12/10 Q1006 BLU BECMG BKN012 RMK BLU BECMG GRN N (360°) 15.0mph 12°C 10°C
3/06/20 22:23 EGUW 032123Z 36013KT 9999 FEW020 SCT030 BKN080 12/10 Q1006 BECMG BKN012 RMK BLU BECMG GRN N (360°) 15.0mph 12°C 10°C
3/06/20 21:50 EGUW 032050Z 01013KT 9999 FEW020 SCT030 BKN080 12/09 Q1007 BECMG BKN012 RMK BLU BECMG GRN N (10°) 15.0mph 12°C 9°C
3/06/20 21:23 EGUW 032023Z 01011KT 9999 FEW020 BKN080 13/09 Q1007 TEMPO SCT020 RMK BLU TEMPO WHT N (10°) 12.7mph 13°C 9°C
3/06/20 20:50 EGUW 031950Z 01011KT 9999 FEW022 BKN080 13/09 Q1007 TEMPO SCT022 RMK BLU TEMPO WHT N (10°) 12.7mph 13°C 9°C
3/06/20 20:22 EGUW 031922Z 01014KT 9999 FEW025 BKN080 13/09 Q1007 TEMPO SCT023 RMK BLU TEMPO WHT N (10°) 16.1mph 13°C 9°C
3/06/20 19:50 EGUW 031850Z 01015KT 9999 FEW025 BKN080 14/09 Q1007 BECMG SCT022 RMK BLU BECMG WHT N (10°) 17.3mph 14°C 9°C
3/06/20 19:20 EGUW 031820Z 36013KT 9999 FEW030 BKN080 14/08 Q1007 NOSIG RMK BLU BLU N (360°) 15.0mph 14°C 8°C
3/06/20 18:50 EGUW 031750Z 36012KT 9999 FEW032 BKN100 15/08 Q1007 NOSIG RMK BLU BLU N (360°) 13.8mph 15°C 8°C
3/06/20 18:22 EGUW 031722Z 36014KT 9999 FEW032 BKN100 16/09 Q1006 NOSIG RMK BLU BLU N (360°) 16.1mph 16°C 9°C
3/06/20 17:50 EGUW 031650Z 01014KT 9999 FEW032 BKN100 16/08 Q1006 NOSIG RMK BLU BLU N (10°) 16.1mph 16°C 8°C
3/06/20 17:21 EGUW 031621Z 01014KT 9999 FEW040 BKN120 18/09 Q1007 NOSIG RMK BLU BLU N (10°) 16.1mph 18°C 9°C
3/06/20 16:50 EGUW 031550Z 02012KT 9999 FEW040 BKN120 BKN200 17/09 Q1007 NOSIG RMK BLU BLU NNE (20°) 13.8mph 17°C 9°C
3/06/20 16:20 EGUW 031520Z 02012KT 9999 FEW040 SCT120 BKN200 18/09 Q1007 NOSIG RMK BLU BLU NNE (20°) 13.8mph 18°C 9°C
3/06/20 15:50 EGUW 031450Z 04013KT 9999 FEW040 SCT140 BKN200 19/08 Q1007 NOSIG RMK BLU BLU NE (40°) 15.0mph 19°C 8°C
3/06/20 15:21 EGUW 031421Z 02012KT 9999 FEW038 BKN200 19/09 Q1007 NOSIG RMK BLU BLU NNE (20°) 13.8mph 19°C 9°C
3/06/20 14:50 EGUW 031350Z 01014KT 9999 FEW038 BKN200 19/09 Q1007 NOSIG RMK BLU BLU N (10°) 16.1mph 19°C 9°C
3/06/20 13:50 EGUW 031250Z 02011KT 9999 FEW038 BKN080 OVC200 18/09 Q1007 NOSIG RMK BLU BLU NNE (20°) 12.7mph 18°C 9°C
3/06/20 13:20 EGUW 031220Z 02011KT 9999 FEW038 BKN080 OVC200 18/09 Q1008 NOSIG RMK BLU BLU NNE (20°) 12.7mph 18°C 9°C
3/06/20 12:20 EGUW 031120Z 01014KT 9999 FEW035 SCT050 BKN090 18/09 Q1008 NOSIG RMK BLU BLU N (10°) 16.1mph 18°C 9°C
3/06/20 11:50 EGUW 031050Z 36012KT 9999 -RA FEW030 BKN050 BKN100 18/09 Q1008 NOSIG RMK BLU BLU -RA N (360°) 13.8mph 18°C 9°C
3/06/20 11:20 EGUW 031020Z 03010KT 9999 -RA FEW035 BKN060 BKN100 18/09 Q1008 NOSIG RMK BLU BLU -RA NNE (30°) 11.5mph 18°C 9°C
3/06/20 10:50 EGUW 030950Z 01011KT 9999 FEW032 SCT090 OVC180 17/09 Q1008 NOSIG RMK BLU BLU N (10°) 12.7mph 17°C 9°C
3/06/20 10:21 EGUW 030921Z 01009KT CAVOK 17/09 Q1008 NOSIG RMK BLU BLU N (10°) 10.4mph 17°C 9°C
3/06/20 09:50 EGUW 030850Z 02008KT 9999 -RA FEW060 SCT080 OVC120 17/09 Q1008 NOSIG RMK BLU BLU -RA NNE (20°) 9.2mph 17°C 9°C
3/06/20 09:19 EGUW 030819Z 02008KT CAVOK 16/09 Q1008 NOSIG RMK BLU BLU NNE (20°) 9.2mph 16°C 9°C
3/06/20 08:20 EGUW 030720Z 01006KT CAVOK 15/09 Q1009 NOSIG RMK BLU BLU N (10°) 6.9mph 15°C 9°C
3/06/20 07:21 EGUW 030621Z 01005KT CAVOK 13/09 Q1009 RMK BLU N (10°) 5.8mph 13°C 9°C
3/06/20 06:50 EGUW 030550Z 36004KT CAVOK 12/09 Q1009 RMK BLU N (360°) 4.6mph 12°C 9°C
3/06/20 05:50 EGUW 030450Z AUTO 36004KT 9999 OVC110/// 11/08 Q1010 N (360°) 4.6mph 11°C 8°C
3/06/20 04:50 EGUW 030350Z AUTO 35003KT 9999 OVC140/// 11/08 Q1010 N (350°) 3.5mph 11°C 8°C
3/06/20 03:50 EGUW 030250Z AUTO 02003KT 9999 OVC150/// 12/08 Q1010 NNE (20°) 3.5mph 12°C 8°C
3/06/20 02:50 EGUW 030150Z AUTO 29002KT 9999 BKN150/// BKN190/// 11/08 Q1011 WNW (290°) 2.3mph 11°C 8°C
3/06/20 01:50 EGUW 030050Z AUTO 02002KT 9999 BKN140/// 12/08 Q1012 NNE (20°) 2.3mph 12°C 8°C
3/06/20 01:20 EGUW 030020Z 35002KT CAVOK 12/08 Q1012 NOSIG RMK BLU BLU N (350°) 2.3mph 12°C 8°C
3/06/20 00:22 EGUW 022322Z 32001KT CAVOK 12/08 Q1012 NOSIG RMK BLU BLU NW (320°) 1.2mph 12°C 8°C
2/06/20 23:50 EGUW 022250Z 33003KT CAVOK 13/11 Q1013 NOSIG RMK BLU BLU NNW (330°) 3.5mph 13°C 11°C
2/06/20 23:20 EGUW 022220Z 26002KT CAVOK 13/10 Q1013 NOSIG RMK BLU BLU W (260°) 2.3mph 13°C 10°C
2/06/20 22:52 EGUW 022152Z 25002KT CAVOK 13/10 Q1013 NOSIG RMK BLU BLU WSW (250°) 2.3mph 13°C 10°C
2/06/20 22:20 EGUW 022120Z 24002KT CAVOK 14/09 Q1014 NOSIG RMK BLU BLU WSW (240°) 2.3mph 14°C 9°C
2/06/20 21:20 EGUW 022020Z 12002KT CAVOK 17/09 Q1014 NOSIG RMK BLU BLU ESE (120°) 2.3mph 17°C 9°C
2/06/20 20:50 EGUW 021950Z 09003KT CAVOK 18/09 Q1014 NOSIG RMK BLU BLU E (90°) 3.5mph 18°C 9°C
2/06/20 20:20 EGUW 021920Z 02005KT CAVOK 18/08 Q1014 NOSIG RMK BLU BLU NNE (20°) 5.8mph 18°C 8°C
2/06/20 19:20 EGUW 021820Z 01006KT CAVOK 21/09 Q1014 NOSIG RMK BLU BLU N (10°) 6.9mph 21°C 9°C
2/06/20 18:50 EGUW 021750Z 01008KT CAVOK 22/09 Q1015 NOSIG RMK BLU BLU N (10°) 9.2mph 22°C 9°C